sensor_id;sensor_type;location;lat;lon;timestamp;P1;durP1;ratioP1;P2;durP2;ratioP2
10142;SDS011;5112;54.088;13.446;2023-03-01T00:07:07;7.33;;;5.43;;
10142;SDS011;5112;54.088;13.446;2023-03-01T00:17:09;9.33;;;5.43;;
10142;SDS011;5112;54.088;13.446;2023-03-01T00:27:12;8.13;;;5.20;;
10142;SDS011;5112;54.088;13.446;2023-03-01T00:37:14;6.63;;;5.07;;
10142;SDS011;5112;54.088;13.446;2023-03-01T00:47:17;7.13;;;4.30;;
10142;SDS011;5112;54.088;13.446;2023-03-01T00:57:18;5.63;;;4.70;;
10142;SDS011;5112;54.088;13.446;2023-03-01T01:07:21;5.13;;;4.13;;
10142;SDS011;5112;54.088;13.446;2023-03-01T01:17:23;6.43;;;5.07;;
10142;SDS011;5112;54.088;13.446;2023-03-01T01:27:26;5.57;;;4.47;;
10142;SDS011;5112;54.088;13.446;2023-03-01T01:37:28;7.33;;;5.00;;
10142;SDS011;5112;54.088;13.446;2023-03-01T01:47:32;8.90;;;4.60;;
10142;SDS011;5112;54.088;13.446;2023-03-01T01:57:35;5.57;;;4.63;;
10142;SDS011;5112;54.088;13.446;2023-03-01T02:07:40;6.87;;;5.00;;
10142;SDS011;5112;54.088;13.446;2023-03-01T02:17:43;5.93;;;5.10;;
10142;SDS011;5112;54.088;13.446;2023-03-01T02:27:49;6.23;;;4.90;;
10142;SDS011;5112;54.088;13.446;2023-03-01T02:38:00;8.70;;;7.00;;
10142;SDS011;5112;54.088;13.446;2023-03-01T02:48:03;7.80;;;5.40;;
10142;SDS011;5112;54.088;13.446;2023-03-01T02:58:07;7.67;;;5.03;;
10142;SDS011;5112;54.088;13.446;2023-03-01T03:08:09;6.70;;;4.57;;
10142;SDS011;5112;54.088;13.446;2023-03-01T03:18:14;6.17;;;4.80;;
10142;SDS011;5112;54.088;13.446;2023-03-01T03:28:17;5.80;;;4.90;;
10142;SDS011;5112;54.088;13.446;2023-03-01T03:38:20;7.20;;;5.07;;
10142;SDS011;5112;54.088;13.446;2023-03-01T03:48:23;5.47;;;4.97;;
10142;SDS011;5112;54.088;13.446;2023-03-01T03:58:26;6.97;;;5.33;;
10142;SDS011;5112;54.088;13.446;2023-03-01T04:08:28;5.73;;;5.13;;
10142;SDS011;5112;54.088;13.446;2023-03-01T04:18:31;6.00;;;5.37;;
10142;SDS011;5112;54.088;13.446;2023-03-01T04:28:33;7.73;;;5.47;;
10142;SDS011;5112;54.088;13.446;2023-03-01T04:38:38;6.20;;;4.80;;
10142;SDS011;5112;54.088;13.446;2023-03-01T04:48:41;6.40;;;5.27;;
10142;SDS011;5112;54.088;13.446;2023-03-01T04:58:45;5.93;;;5.13;;
10142;SDS011;5112;54.088;13.446;2023-03-01T05:08:47;8.13;;;5.10;;
10142;SDS011;5112;54.088;13.446;2023-03-01T05:18:50;6.33;;;5.07;;
10142;SDS011;5112;54.088;13.446;2023-03-01T05:28:52;6.17;;;5.17;;
10142;SDS011;5112;54.088;13.446;2023-03-01T05:38:59;7.47;;;4.83;;
10142;SDS011;5112;54.088;13.446;2023-03-01T05:49:01;5.13;;;4.63;;
10142;SDS011;5112;54.088;13.446;2023-03-01T05:59:05;7.93;;;5.33;;
10142;SDS011;5112;54.088;13.446;2023-03-01T06:09:07;8.30;;;5.10;;
10142;SDS011;5112;54.088;13.446;2023-03-01T06:19:11;6.63;;;4.80;;
10142;SDS011;5112;54.088;13.446;2023-03-01T06:29:12;7.37;;;5.23;;
10142;SDS011;5112;54.088;13.446;2023-03-01T06:39:15;7.70;;;5.23;;
10142;SDS011;5112;54.088;13.446;2023-03-01T06:49:17;5.83;;;5.17;;
10142;SDS011;5112;54.088;13.446;2023-03-01T06:59:22;6.73;;;5.17;;
10142;SDS011;5112;54.088;13.446;2023-03-01T07:09:23;6.77;;;5.83;;
10142;SDS011;5112;54.088;13.446;2023-03-01T07:19:27;8.40;;;6.50;;
10142;SDS011;5112;54.088;13.446;2023-03-01T07:29:29;9.47;;;6.17;;
10142;SDS011;5112;54.088;13.446;2023-03-01T07:39:32;6.73;;;5.60;;
10142;SDS011;5112;54.088;13.446;2023-03-01T07:49:34;7.40;;;5.93;;
10142;SDS011;5112;54.088;13.446;2023-03-01T07:59:37;9.67;;;6.93;;
10142;SDS011;5112;54.088;13.446;2023-03-01T08:09:38;10.57;;;8.20;;
10142;SDS011;5112;54.088;13.446;2023-03-01T08:19:42;13.77;;;9.53;;
10142;SDS011;5112;54.088;13.446;2023-03-01T08:29:43;13.97;;;10.20;;
10142;SDS011;5112;54.088;13.446;2023-03-01T08:39:47;15.57;;;10.90;;
10142;SDS011;5112;54.088;13.446;2023-03-01T08:49:49;14.70;;;11.10;;
10142;SDS011;5112;54.088;13.446;2023-03-01T08:59:52;14.60;;;11.30;;
10142;SDS011;5112;54.088;13.446;2023-03-01T09:09:56;16.00;;;12.10;;
10142;SDS011;5112;54.088;13.446;2023-03-01T09:19:59;16.50;;;11.57;;
10142;SDS011;5112;54.088;13.446;2023-03-01T09:30:00;14.77;;;12.20;;
10142;SDS011;5112;54.088;13.446;2023-03-01T09:40:05;16.10;;;11.40;;
10142;SDS011;5112;54.088;13.446;2023-03-01T09:50:12;16.27;;;11.37;;
10142;SDS011;5112;54.088;13.446;2023-03-01T10:00:24;19.50;;;12.57;;
10142;SDS011;5112;54.088;13.446;2023-03-01T10:10:32;17.40;;;12.53;;
10142;SDS011;5112;54.088;13.446;2023-03-01T10:20:41;15.83;;;11.87;;
10142;SDS011;5112;54.088;13.446;2023-03-01T10:30:47;15.60;;;11.93;;
10142;SDS011;5112;54.088;13.446;2023-03-01T10:40:51;14.73;;;11.33;;
10142;SDS011;5112;54.088;13.446;2023-03-01T10:51:04;15.37;;;12.10;;
10142;SDS011;5112;54.088;13.446;2023-03-01T11:01:24;13.13;;;11.43;;
10142;SDS011;5112;54.088;13.446;2023-03-01T11:11:30;11.77;;;10.53;;
10142;SDS011;5112;54.088;13.446;2023-03-01T11:21:35;12.37;;;10.67;;
10142;SDS011;5112;54.088;13.446;2023-03-01T11:31:40;13.37;;;11.87;;
10142;SDS011;5112;54.088;13.446;2023-03-01T11:41:44;12.63;;;11.13;;
10142;SDS011;5112;54.088;13.446;2023-03-01T11:51:53;15.10;;;13.13;;
10142;SDS011;5112;54.088;13.446;2023-03-01T12:12:40;14.40;;;12.23;;
10142;SDS011;5112;54.088;13.446;2023-03-01T12:22:58;14.80;;;12.37;;
10142;SDS011;5112;54.088;13.446;2023-03-01T12:33:12;17.47;;;15.37;;
10142;SDS011;5112;54.088;13.446;2023-03-01T12:43:22;13.33;;;11.90;;
10142;SDS011;5112;54.088;13.446;2023-03-01T12:53:34;17.00;;;14.30;;
10142;SDS011;5112;54.088;13.446;2023-03-01T13:03:41;16.80;;;14.20;;
10142;SDS011;5112;54.088;13.446;2023-03-01T13:14:00;19.43;;;15.57;;
10142;SDS011;5112;54.088;13.446;2023-03-01T13:24:41;23.03;;;17.90;;
10142;SDS011;5112;54.088;13.446;2023-03-01T13:34:49;21.07;;;17.57;;
10142;SDS011;5112;54.088;13.446;2023-03-01T13:44:52;24.47;;;18.93;;
10142;SDS011;5112;54.088;13.446;2023-03-01T13:54:55;21.27;;;16.97;;
10142;SDS011;5112;54.088;13.446;2023-03-01T14:04:58;27.20;;;19.67;;
10142;SDS011;5112;54.088;13.446;2023-03-01T14:15:02;27.40;;;20.13;;
10142;SDS011;5112;54.088;13.446;2023-03-01T14:25:16;28.60;;;20.03;;
10142;SDS011;5112;54.088;13.446;2023-03-01T14:35:23;29.17;;;19.90;;
10142;SDS011;5112;54.088;13.446;2023-03-01T14:45:26;28.00;;;21.63;;
10142;SDS011;5112;54.088;13.446;2023-03-01T14:55:32;27.90;;;20.70;;
10142;SDS011;5112;54.088;13.446;2023-03-01T15:05:36;28.53;;;20.57;;
10142;SDS011;5112;54.088;13.446;2023-03-01T15:15:39;34.10;;;23.67;;
10142;SDS011;5112;54.088;13.446;2023-03-01T15:25:43;30.87;;;20.70;;
10142;SDS011;5112;54.088;13.446;2023-03-01T15:35:47;29.30;;;19.50;;
10142;SDS011;5112;54.088;13.446;2023-03-01T15:45:55;32.20;;;21.37;;
10142;SDS011;5112;54.088;13.446;2023-03-01T15:55:59;29.27;;;19.73;;
10142;SDS011;5112;54.088;13.446;2023-03-01T16:06:00;31.80;;;21.00;;
10142;SDS011;5112;54.088;13.446;2023-03-01T16:16:04;35.57;;;22.60;;
10142;SDS011;5112;54.088;13.446;2023-03-01T16:26:07;28.07;;;19.73;;
10142;SDS011;5112;54.088;13.446;2023-03-01T16:36:11;36.90;;;24.33;;
10142;SDS011;5112;54.088;13.446;2023-03-01T16:46:14;29.80;;;22.03;;
10142;SDS011;5112;54.088;13.446;2023-03-01T16:56:19;29.07;;;19.97;;
10142;SDS011;5112;54.088;13.446;2023-03-01T17:06:20;29.98;;;24.38;;
10142;SDS011;5112;54.088;13.446;2023-03-01T17:16:26;32.47;;;21.07;;
10142;SDS011;5112;54.088;13.446;2023-03-01T17:26:27;28.57;;;20.17;;
10142;SDS011;5112;54.088;13.446;2023-03-01T17:36:30;37.80;;;23.53;;
10142;SDS011;5112;54.088;13.446;2023-03-01T17:46:40;49.97;;;32.40;;
10142;SDS011;5112;54.088;13.446;2023-03-01T17:56:43;44.20;;;29.60;;
10142;SDS011;5112;54.088;13.446;2023-03-01T18:06:45;32.93;;;26.10;;
10142;SDS011;5112;54.088;13.446;2023-03-01T18:16:48;20.37;;;18.23;;
10142;SDS011;5112;54.088;13.446;2023-03-01T18:26:50;26.13;;;23.30;;
10142;SDS011;5112;54.088;13.446;2023-03-01T18:36:53;20.93;;;16.87;;
10142;SDS011;5112;54.088;13.446;2023-03-01T18:46:55;25.10;;;21.50;;
10142;SDS011;5112;54.088;13.446;2023-03-01T18:56:59;27.20;;;19.57;;
10142;SDS011;5112;54.088;13.446;2023-03-01T19:07:01;30.30;;;22.63;;
10142;SDS011;5112;54.088;13.446;2023-03-01T19:17:04;35.00;;;21.83;;
10142;SDS011;5112;54.088;13.446;2023-03-01T19:27:05;30.60;;;23.13;;
10142;SDS011;5112;54.088;13.446;2023-03-01T19:37:08;30.08;;;24.52;;
10142;SDS011;5112;54.088;13.446;2023-03-01T19:47:10;36.83;;;25.30;;
10142;SDS011;5112;54.088;13.446;2023-03-01T19:57:13;37.73;;;23.07;;
10142;SDS011;5112;54.088;13.446;2023-03-01T20:07:15;41.63;;;26.02;;
10142;SDS011;5112;54.088;13.446;2023-03-01T20:17:19;36.00;;;24.63;;
10142;SDS011;5112;54.088;13.446;2023-03-01T20:27:21;39.50;;;22.17;;
10142;SDS011;5112;54.088;13.446;2023-03-01T20:37:24;37.87;;;25.93;;
10142;SDS011;5112;54.088;13.446;2023-03-01T20:47:25;41.47;;;22.13;;
10142;SDS011;5112;54.088;13.446;2023-03-01T20:57:28;36.13;;;21.53;;
10142;SDS011;5112;54.088;13.446;2023-03-01T21:07:31;46.73;;;25.90;;
10142;SDS011;5112;54.088;13.446;2023-03-01T21:17:34;40.93;;;20.67;;
10142;SDS011;5112;54.088;13.446;2023-03-01T21:27:36;43.07;;;18.57;;
10142;SDS011;5112;54.088;13.446;2023-03-01T21:37:39;34.65;;;22.55;;
10142;SDS011;5112;54.088;13.446;2023-03-01T21:47:41;40.83;;;22.03;;
10142;SDS011;5112;54.088;13.446;2023-03-01T21:57:44;34.47;;;20.10;;
10142;SDS011;5112;54.088;13.446;2023-03-01T22:07:45;32.67;;;15.73;;
10142;SDS011;5112;54.088;13.446;2023-03-01T22:17:48;30.83;;;17.97;;
10142;SDS011;5112;54.088;13.446;2023-03-01T22:27:50;25.20;;;19.13;;
10142;SDS011;5112;54.088;13.446;2023-03-01T22:37:53;23.92;;;17.73;;
10142;SDS011;5112;54.088;13.446;2023-03-01T22:47:55;25.58;;;17.27;;
10142;SDS011;5112;54.088;13.446;2023-03-01T22:57:58;25.20;;;16.85;;
10142;SDS011;5112;54.088;13.446;2023-03-01T23:08:00;19.80;;;14.27;;
10142;SDS011;5112;54.088;13.446;2023-03-01T23:18:03;20.75;;;14.48;;
10142;SDS011;5112;54.088;13.446;2023-03-01T23:28:04;20.00;;;14.00;;
10142;SDS011;5112;54.088;13.446;2023-03-01T23:38:07;16.33;;;10.77;;
10142;SDS011;5112;54.088;13.446;2023-03-01T23:48:10;18.87;;;12.90;;
10142;SDS011;5112;54.088;13.446;2023-03-01T23:58:13;18.63;;;11.67;;
